createdAt,value
2023-02-25T00:01:10.018Z,84.85
2023-02-25T00:06:18.255Z,84.18
2023-02-25T00:11:30.104Z,84.48
2023-02-25T00:16:37.907Z,84.13
2023-02-25T00:21:45.807Z,84.08
2023-02-25T00:26:53.281Z,83.62
2023-02-25T00:32:02.320Z,83.53
2023-02-25T00:37:10.683Z,83.31
2023-02-25T00:42:19.860Z,83.40
2023-02-25T00:47:27.719Z,84.14
2023-02-25T00:52:36.035Z,86.27
2023-02-25T00:57:44.443Z,87.73
2023-02-25T01:02:51.924Z,88.22
2023-02-25T01:07:59.749Z,89.61
2023-02-25T01:13:08.005Z,90.59
2023-02-25T01:18:15.399Z,90.72
2023-02-25T01:23:23.765Z,91.19
2023-02-25T01:28:31.624Z,91.50
2023-02-25T01:33:39.283Z,91.88
2023-02-25T01:38:47.081Z,92.71
2023-02-25T01:44:09.400Z,93.04
2023-02-25T01:49:22.200Z,93.24
2023-02-25T01:54:31.142Z,94.15
2023-02-25T01:59:40.409Z,95.06
2023-02-25T02:04:50.322Z,95.35
2023-02-25T02:09:57.747Z,95.88
2023-02-25T02:15:09.391Z,94.91
2023-02-25T02:20:22.245Z,92.15
2023-02-25T02:28:57.981Z,92.52
2023-02-25T02:34:16.886Z,92.12
2023-02-25T02:39:34.092Z,92.21
2023-02-25T02:44:51.221Z,92.10
2023-02-25T02:49:59.583Z,92.36
2023-02-25T02:55:14.087Z,92.12
2023-02-25T03:00:26.463Z,92.27
2023-02-25T03:05:36.467Z,92.07
2023-02-25T03:10:45.066Z,92.34
2023-02-25T03:15:53.989Z,92.08
2023-02-25T03:21:05.167Z,92.42
2023-02-25T03:26:20.638Z,92.43
2023-02-25T03:31:36.721Z,92.97
2023-02-25T03:36:52.029Z,92.84
2023-02-25T03:42:04.206Z,93.47
2023-02-25T03:47:13.357Z,93.67
2023-02-25T03:52:24.587Z,92.72
2023-02-25T03:57:39.600Z,91.82
2023-02-25T04:02:49.316Z,91.64
2023-02-25T04:07:57.814Z,91.03
2023-02-25T04:13:06.363Z,91.32
2023-02-25T04:18:14.644Z,91.41
2023-02-25T04:23:22.041Z,92.37
2023-02-25T04:28:30.261Z,93.62
2023-02-25T04:33:37.935Z,94.87
2023-02-25T04:38:46.215Z,94.87
2023-02-25T04:43:54.290Z,94.52
2023-02-25T04:49:02.774Z,94.54
2023-02-25T04:54:10.476Z,94.88
2023-02-25T04:59:19.268Z,95.34
2023-02-25T05:04:26.728Z,96.11
2023-02-25T05:09:35.259Z,96.76
2023-02-25T05:14:43.314Z,96.64
2023-02-25T05:19:51.027Z,94.41
2023-02-25T05:24:58.825Z,93.63
2023-02-25T05:30:07.042Z,93.89
2023-02-25T05:35:14.914Z,94.02
2023-02-25T05:40:23.072Z,94.07
2023-02-25T05:45:32.156Z,93.99
2023-02-25T05:50:41.913Z,93.97
2023-02-25T05:55:50.510Z,94.12
2023-02-25T06:00:58.918Z,94.38
2023-02-25T06:06:08.336Z,94.33
2023-02-25T06:11:18.629Z,94.58
2023-02-25T06:16:32.401Z,94.40
2023-02-25T06:21:40.740Z,94.43
2023-02-25T06:26:48.580Z,94.56
2023-02-25T06:31:56.427Z,94.46
2023-02-25T06:37:04.055Z,94.71
2023-02-25T06:42:11.751Z,95.02
2023-02-25T06:47:19.278Z,95.22
2023-02-25T06:52:27.039Z,95.62
2023-02-25T06:57:34.937Z,95.98
2023-02-25T07:02:42.529Z,96.25
2023-02-25T07:07:50.008Z,96.30
2023-02-25T07:12:57.787Z,95.98
2023-02-25T07:18:06.657Z,95.33
2023-02-25T07:23:14.269Z,95.57
2023-02-25T07:28:22.527Z,95.35
2023-02-25T07:33:31.110Z,95.12
2023-02-25T07:38:39.329Z,95.01
2023-02-25T07:43:46.750Z,94.89
2023-02-25T07:48:54.899Z,94.00
2023-02-25T07:54:02.690Z,92.75
2023-02-25T07:59:11.911Z,90.85
2023-02-25T08:04:21.290Z,89.74
2023-02-25T08:09:29.011Z,89.30
2023-02-25T08:14:36.412Z,87.57
2023-02-25T08:19:43.811Z,85.78
2023-02-25T08:24:52.155Z,84.18
2023-02-25T08:30:00.005Z,82.76
2023-02-25T08:35:08.384Z,82.40
2023-02-25T08:40:18.505Z,80.85
2023-02-25T08:45:27.098Z,78.83
2023-02-25T08:50:34.988Z,77.20
2023-02-25T08:55:42.967Z,77.20
2023-02-25T09:00:52.318Z,76.59
2023-02-25T09:06:01.680Z,76.67
2023-02-25T09:11:10.091Z,75.64
2023-02-25T09:16:18.200Z,74.39
2023-02-25T09:21:26.154Z,73.84
2023-02-25T09:26:34.450Z,74.14
2023-02-25T09:31:41.980Z,73.76
2023-02-25T09:36:50.200Z,73.23
2023-02-25T09:42:03.860Z,72.34
2023-02-25T09:47:19.707Z,76.22
2023-02-25T09:52:32.454Z,80.24
2023-02-25T09:57:44.146Z,82.57
2023-02-25T10:02:57.306Z,83.99
2023-02-25T10:08:19.321Z,83.56
2023-02-25T10:13:36.535Z,81.98
2023-02-25T10:18:51.377Z,77.51
2023-02-25T10:28:21.436Z,76.84
2023-02-25T10:33:37.327Z,75.21
2023-02-25T10:38:47.496Z,72.76
2023-02-25T10:43:56.457Z,72.92
2023-02-25T10:49:16.397Z,71.25
2023-02-25T10:54:26.560Z,69.31
2023-02-25T10:59:40.520Z,70.03
2023-02-25T11:04:48.815Z,69.84
2023-02-25T11:10:15.498Z,68.65
2023-02-25T11:15:50.035Z,67.85
2023-02-25T11:21:00.789Z,68.42
2023-02-25T11:26:09.795Z,69.99
2023-02-25T11:31:21.897Z,68.52
2023-02-25T11:36:35.186Z,71.73
2023-02-25T11:41:45.251Z,74.57
2023-02-25T11:47:00.085Z,76.78
2023-02-25T11:52:15.974Z,79.05
2023-02-25T11:57:36.435Z,82.01
2023-02-25T12:02:57.031Z,84.17
2023-02-25T12:08:33.349Z,85.49
2023-02-25T12:14:10.188Z,85.18
2023-02-25T12:19:54.224Z,85.11
2023-02-25T12:25:12.513Z,83.79
2023-02-25T12:30:52.757Z,80.92
2023-02-25T12:36:09.982Z,78.05
2023-02-25T12:41:39.644Z,77.87
2023-02-25T12:47:02.961Z,76.66
2023-02-25T12:52:27.576Z,78.49
2023-02-25T12:57:50.319Z,79.41
2023-02-25T13:03:21.488Z,80.11
2023-02-25T13:08:40.462Z,80.16
2023-02-25T13:14:02.466Z,81.27
2023-02-25T13:19:33.850Z,81.68
2023-02-25T13:24:56.833Z,83.30
2023-02-25T13:30:22.602Z,85.80
2023-02-25T13:35:41.222Z,86.65
2023-02-25T13:40:57.395Z,86.17
2023-02-25T13:46:12.200Z,85.87
2023-02-25T13:51:37.551Z,85.35
2023-02-25T13:57:00.438Z,84.26
2023-02-25T14:02:27.133Z,83.86
2023-02-25T14:07:57.053Z,82.53
2023-02-25T14:13:22.044Z,81.28
2023-02-25T14:18:54.051Z,82.33
2023-02-25T14:24:07.628Z,84.23
2023-02-25T14:29:29.523Z,85.09
2023-02-25T14:34:56.187Z,84.89
2023-02-25T14:40:27.433Z,83.94
2023-02-25T14:45:39.361Z,82.84
2023-02-25T14:50:52.583Z,81.22
2023-02-25T14:56:19.515Z,80.68
2023-02-25T15:01:55.736Z,79.71
2023-02-25T15:07:16.743Z,79.95
2023-02-25T15:12:34.994Z,80.45
2023-02-25T15:18:12.954Z,80.64
2023-02-25T15:23:20.437Z,79.97
2023-02-25T15:28:40.224Z,78.42
2023-02-25T15:33:49.616Z,77.47
2023-02-25T15:38:58.892Z,77.25
2023-02-25T15:44:41.041Z,77.91
2023-02-25T15:49:50.547Z,77.44
2023-02-25T15:55:22.247Z,77.62
2023-02-25T16:00:57.481Z,77.71
2023-02-25T16:06:08.159Z,77.66
2023-02-25T16:11:26.671Z,78.35
2023-02-25T16:16:36.797Z,78.74
2023-02-25T16:21:49.937Z,79.28
2023-02-25T16:27:03.283Z,79.73
2023-02-25T16:32:24.576Z,80.19
2023-02-25T16:37:40.039Z,80.58
2023-02-25T16:42:48.669Z,80.74
2023-02-25T16:48:02.854Z,80.92
2023-02-25T16:53:20.720Z,81.54
2023-02-25T16:58:30.847Z,81.45
2023-02-25T17:03:46.837Z,81.94
2023-02-25T17:08:54.520Z,81.26
2023-02-25T17:14:06.838Z,79.07
2023-02-25T17:19:19.435Z,78.48
2023-02-25T17:24:31.244Z,78.83
2023-02-25T17:29:40.248Z,80.19
2023-02-25T17:34:48.211Z,80.93
2023-02-25T17:39:56.434Z,81.56
2023-02-25T17:45:05.250Z,82.01
2023-02-25T17:50:31.301Z,82.68
2023-02-25T17:55:38.523Z,82.98
2023-02-25T18:00:56.588Z,83.11
2023-02-25T18:06:04.512Z,82.37
2023-02-25T18:11:26.298Z,82.37
2023-02-25T18:16:40.563Z,82.69
2023-02-25T18:21:48.022Z,82.85
2023-02-25T18:27:27.620Z,82.76
2023-02-25T18:32:35.390Z,82.65
2023-02-25T18:37:45.031Z,81.85
2023-02-25T18:42:52.335Z,81.49
2023-02-25T18:48:01.035Z,81.34
2023-02-25T18:53:08.620Z,81.36
2023-02-25T18:58:18.858Z,81.73
2023-02-25T19:03:30.887Z,82.31
2023-02-25T19:08:39.008Z,82.79
2023-02-25T19:24:36.911Z,83.82
2023-02-25T19:29:45.315Z,84.08
2023-02-25T19:34:53.314Z,84.00
2023-02-25T19:40:00.414Z,84.14
2023-02-25T19:45:08.259Z,84.26
2023-02-25T19:50:17.542Z,83.96
2023-02-25T19:55:25.289Z,83.73
2023-02-25T20:00:33.121Z,83.72
2023-02-25T20:05:40.506Z,83.69
2023-02-25T20:10:47.563Z,84.14
2023-02-25T20:16:00.796Z,84.01
2023-02-25T20:21:10.232Z,84.84
2023-02-25T20:26:20.703Z,85.30
2023-02-25T20:31:29.623Z,85.56
2023-02-25T20:36:43.328Z,85.87
2023-02-25T20:41:51.417Z,86.13
2023-02-25T20:47:00.383Z,86.25
2023-02-25T20:52:11.161Z,86.38
2023-02-25T20:57:21.342Z,86.65
2023-02-25T21:02:28.586Z,87.10
2023-02-25T21:07:35.815Z,87.05
2023-02-25T21:12:41.990Z,87.51
2023-02-25T21:17:49.474Z,87.58
2023-02-25T21:22:55.013Z,87.89
2023-02-25T21:28:02.594Z,88.01
2023-02-25T21:33:10.138Z,88.34
2023-02-25T21:38:17.316Z,88.52
2023-02-25T21:43:24.304Z,88.53
2023-02-25T21:48:32.636Z,88.99
2023-02-25T21:53:40.405Z,89.76
2023-02-25T21:58:48.388Z,89.95
2023-02-25T22:03:56.479Z,90.17
2023-02-25T22:09:04.439Z,90.68
2023-02-25T22:14:13.497Z,90.94
2023-02-25T22:19:20.655Z,91.22
2023-02-25T22:24:26.319Z,91.70
2023-02-25T22:29:35.103Z,91.80
2023-02-25T22:34:47.293Z,91.88
2023-02-25T22:39:55.044Z,91.82
2023-02-25T22:45:02.521Z,91.60
2023-02-25T22:50:11.991Z,91.84
2023-02-25T22:55:20.149Z,91.45
2023-02-25T23:00:35.396Z,91.61
2023-02-25T23:05:42.817Z,91.41
2023-02-25T23:10:51.564Z,91.34
2023-02-25T23:16:04.074Z,90.86
2023-02-25T23:21:16.524Z,90.81
2023-02-25T23:26:27.103Z,90.65
2023-02-25T23:31:36.677Z,90.83
2023-02-25T23:36:45.472Z,90.36
2023-02-25T23:41:52.886Z,90.46
2023-02-25T23:46:58.593Z,90.14
2023-02-25T23:52:07.010Z,89.93
2023-02-25T23:57:14.280Z,89.78
